Latest Weather Observations for Maningrida Airport

IDD60801

Issued at 10:01 am CST Saturday 25 April 2015 (issued every 30 minutes, with the page automatically refreshed every 10 minutes)

About weather observations | Map of weather stations | Latest weather observations for NT | Other Formats
Station Details ID: 014405 Name: MANINGRIDA AIRPORT Lat: -12.06 Lon: 134.23 Height: 28.1 m
Data from the previous 72 hours. | See also: Recent months at Maningrida Airport
Date/Time
CST
Temp
°C
App
Temp
°C
Dew
Point
Rel
Hum
%
Delta-T
°C
Wind Press
QNH
hPa
Press
MSL
hPa
Rain
since 9 am
mm
Dir
 
Spd
km/h
Gust
km/h
Spd
kts
Gust
kts
25/10:00am 28.9 30.2 19.2 55 6.3 ESE 11 17 6 9 1011.5 1011.3 0.0
25/09:30am 27.5 28.6 19.6 62 5.1 SE 13 17 7 9 1011.3 1011.1 0.0
25/09:00am 26.5 27.8 19.4 65 4.6 SE 11 19 6 10 1011.1 1011.0 0.0
25/08:30am 25.1 26.9 19.5 71 3.6 SSE 9 13 5 7 1010.9 1010.8 0.0
25/08:00am 23.3 24.7 18.6 75 3.0 SSE 9 15 5 8 1010.6 1010.5 0.0
25/07:30am 21.9 23.2 18.5 81 2.1 S 9 13 5 7 1010.5 1010.4 0.0
25/07:00am 20.5 21.8 18.4 88 1.3 S 9 13 5 7 1010.3 1010.2 0.0
25/06:30am 20.3 21.6 18.4 89 1.2 SSE 9 9 5 5 1010.1 1010.0 0.0
25/06:00am 20.6 21.9 18.5 88 1.3 S 9 11 5 6 1010.3 1010.2 0.0
25/05:30am 20.4 22.2 18.7 90 1.1 S 7 9 4 5 1010.3 1010.2 0.0
25/05:00am 20.4 21.9 18.9 91 0.9 SSE 9 11 5 6 1009.9 1009.8 0.0
25/04:30am 20.9 23.0 19.0 89 1.2 SE 6 7 3 4 1009.8 1009.7 0.0
25/04:00am 21.0 22.9 18.9 88 1.3 SE 7 9 4 5 1010.0 1009.9 0.0
25/03:30am 21.1 23.0 19.0 88 1.3 S 7 7 4 4 1010.0 1009.9 0.0
25/03:00am 21.3 24.1 18.9 86 1.5 S 2 6 1 3 1010.3 1010.2 0.0
25/02:30am 21.5 24.4 19.1 86 1.5 S 2 6 1 3 1010.2 1010.1 0.0
25/02:00am 21.5 23.5 18.7 84 1.8 SW 6 9 3 5 1010.0 1009.9 0.0
25/01:30am 21.9 23.8 18.5 81 2.1 SSW 6 7 3 4 1010.3 1010.2 0.0
25/01:00am 22.9 24.7 18.4 76 2.8 SSE 6 7 3 4 1010.3 1010.2 0.0
25/12:30am 24.5 25.7 18.2 68 4.0 ESE 9 11 5 6 1010.5 1010.4 0.0
25/12:00am 25.3 26.0 18.0 64 4.6 ESE 11 15 6 8 1010.6 1010.5 0.0
 
Date/Time
CST
Temp
°C
App
Temp
°C
Dew
Point
Rel
Hum
%
Delta-T
°C
Wind Press
QNH
hPa
Press
MSL
hPa
Rain
since 9 am
mm
Dir
 
Spd
km/h
Gust
km/h
Spd
kts
Gust
kts
24/11:30pm 25.5 26.2 18.9 67 4.2 ESE 13 17 7 9 1010.5 1010.4 0.0
24/11:00pm 25.9 27.5 20.7 73 3.4 ESE 13 17 7 9 1010.5 1010.4 0.0
24/10:30pm 25.8 28.0 20.4 72 3.5 ESE 9 13 5 7 1010.6 1010.5 0.0
24/10:00pm 26.0 28.3 20.6 72 3.5 E 9 11 5 6 1010.6 1010.5 0.0
24/09:30pm 26.0 28.2 20.3 71 3.7 E 9 11 5 6 1010.6 1010.5 0.0
24/09:00pm 26.3 28.9 20.4 70 3.9 E 7 11 4 6 1010.5 1010.4 0.0
24/08:30pm 26.5 29.0 20.3 68 4.1 E 7 11 4 6 1010.2 1010.1 0.0
24/08:00pm 26.8 29.3 20.2 67 4.3 ENE 7 9 4 5 1009.8 1009.7 0.0
24/07:30pm 27.0 29.5 20.3 66 4.4 ENE 7 9 4 5 1009.5 1009.4 0.0
24/07:00pm 27.4 30.0 20.5 66 4.5 ENE 7 9 4 5 1009.2 1009.0 0.0
24/06:30pm 28.2 30.4 20.5 63 5.1 ENE 9 11 5 6 1008.8 1008.6 0.0
24/06:00pm 29.1 31.3 20.3 59 5.8 NE 9 13 5 7 1008.6 1008.4 0.0
24/05:30pm 30.0 31.0 19.4 53 6.9 NE 13 19 7 10 1008.2 1008.0 0.0
24/05:00pm 30.7 31.7 19.4 51 7.4 NE 13 17 7 9 1007.9 1007.7 0.0
24/04:30pm 31.2 32.3 18.9 48 8.0 ENE 11 19 6 10 1007.7 1007.5 0.0
24/04:00pm 31.6 32.8 19.9 50 7.7 ENE 13 19 7 10 1007.7 1007.5 0.0
24/03:30pm 31.6 31.9 19.6 49 7.9 NE 17 22 9 12 1007.8 1007.6 0.0
24/03:00pm 31.8 32.2 19.8 49 7.9 ENE 17 24 9 13 1007.8 1007.6 0.0
24/02:30pm 32.2 33.3 20.5 50 7.8 E 15 24 8 13 1008.0 1007.8 0.0
24/02:00pm 32.3 33.2 19.2 46 8.6 ENE 13 22 7 12 1008.2 1008.0 0.0
24/01:30pm 32.8 31.0 14.4 33 11.3 E 17 26 9 14 1008.7 1008.5 0.0
24/01:00pm 32.5 32.3 16.8 39 10.0 E 13 20 7 11 1009.1 1008.9 0.0
24/12:30pm 32.3 32.2 17.0 40 9.7 E 13 20 7 11 1009.5 1009.4 0.0
24/12:00pm 32.0 32.6 17.8 42 9.1 E 11 17 6 9 1009.9 1009.8 0.0
24/11:30am 31.6 32.4 18.2 44 8.7 SE 11 17 6 9 1010.3 1010.2 0.0
24/11:00am 31.0 32.5 19.0 48 7.8 SSE 9 19 5 10 1010.7 1010.6 0.0
24/10:30am 30.4 33.1 20.6 55 6.5 S 7 11 4 6 1011.1 1011.0 0.0
24/10:00am 29.7 31.7 20.8 58 5.9 ESE 11 17 6 9 1011.3 1011.1 0.0
24/09:30am 28.5 30.2 21.0 64 5.0 ESE 13 19 7 10 1011.6 1011.4 0.0
24/09:00am 27.9 29.6 21.0 66 4.6 ESE 13 17 7 9 1011.5 1011.3 0.0
24/08:30am 27.2 28.8 20.8 68 4.2 SE 13 19 7 10 1011.3 1011.1 0.0
24/08:00am 26.1 28.4 20.7 72 3.6 SSE 9 11 5 6 1011.0 1010.9 0.0
24/07:30am 24.7 27.8 21.4 82 2.2 SSE 7 9 4 5 1010.7 1010.6 0.0
24/07:00am 22.9 26.0 21.5 92 0.9 S 7 9 4 5 1010.6 1010.5 0.0
24/06:30am 22.6 25.4 20.9 90 1.1 S 7 9 4 5 1010.3 1010.2 0.0
24/06:00am 22.3 25.0 20.6 90 1.1 SSE 7 9 4 5 1010.1 1010.0 0.0
24/05:30am 22.6 25.3 20.7 89 1.2 SE 7 9 4 5 1009.9 1009.8 0.0
24/05:00am 22.9 25.7 20.4 86 1.6 SSE 6 7 3 4 1009.9 1009.8 0.0
24/04:30am 23.8 26.3 20.3 81 2.3 SSE 7 9 4 5 1010.0 1009.9 0.0
24/04:00am 23.8 25.7 20.5 82 2.1 SE 11 13 6 7 1009.9 1009.8 0.0
24/03:30am 24.0 26.3 20.7 82 2.2 SE 9 13 5 7 1009.8 1009.7 0.0
24/03:00am 24.1 26.2 21.0 83 2.0 SE 11 13 6 7 1009.6 1009.5 0.0
24/02:30am 24.3 26.5 21.2 83 2.0 SE 11 15 6 8 1009.4 1009.3 0.0
24/02:00am 24.7 27.1 21.6 83 2.1 SE 11 13 6 7 1009.7 1009.6 0.0
24/01:30am 25.0 27.5 21.1 79 2.6 SE 9 11 5 6 1010.0 1009.9 0.0
24/01:00am 25.4 27.5 20.9 76 3.0 SE 11 13 6 7 1010.1 1010.0 0.0
24/12:30am 25.4 27.8 21.5 79 2.6 SE 11 13 6 7 1010.2 1010.1 0.0
24/12:00am 26.2 27.8 21.4 75 3.2 SE 15 19 8 10 1010.2 1010.1 0.0
 
Date/Time
CST
Temp
°C
App
Temp
°C
Dew
Point
Rel
Hum
%
Delta-T
°C
Wind Press
QNH
hPa
Press
MSL
hPa
Rain
since 9 am
mm
Dir
 
Spd
km/h
Gust
km/h
Spd
kts
Gust
kts
23/11:30pm 24.8 28.1 23.2 91 1.1 SE 11 13 6 7 1010.2 1010.1 0.0
23/11:00pm 25.1 30.4 23.0 88 1.4 CALM 0 0 0 0 1010.3 1010.2 0.0
23/10:30pm 25.3 30.6 23.0 87 1.6 CALM 0 0 0 0 1010.3 1010.2 0.0
23/10:00pm 25.7 31.1 23.2 86 1.7 CALM 0 0 0 0 1010.3 1010.2 0.0
23/09:30pm 25.6 30.8 22.9 85 1.8 CALM 0 0 0 0 1010.3 1010.2 0.0
23/09:00pm 26.2 30.2 22.7 81 2.4 NE 6 7 3 4 1010.3 1010.2 0.0
23/08:30pm 26.2 31.5 23.1 83 2.1 CALM 0 0 0 0 1010.1 1010.0 0.0
23/08:00pm 26.7 32.0 23.0 80 2.5 CALM 0 0 0 0 1009.9 1009.8 0.0
23/07:58pm 26.7 31.9 22.8 79 2.6 CALM 0 0 0 0 1009.8 1009.7 0.0
23/07:40pm 27.0 31.9 22.4 76 3.1 CALM 0 0 0 0 1009.5 1009.4 0.0
23/07:30pm 27.6 31.7 22.3 73 3.6 NNE 4 7 2 4 1009.4 1009.3 0.0
23/07:00pm 28.2 32.0 22.4 71 3.9 NE 6 7 3 4 1009.0 1008.8 0.0
23/06:30pm 28.6 32.1 21.9 67 4.5 NE 6 9 3 5 1008.5 1008.3 0.0
23/06:00pm 29.4 32.1 21.4 62 5.4 NNE 9 13 5 7 1008.3 1008.1 0.0
23/05:30pm 30.1 32.2 20.9 57 6.1 NE 11 15 6 8 1008.1 1007.9 0.0
23/05:00pm 30.6 32.5 21.4 58 6.2 NNE 13 17 7 9 1008.1 1007.9 0.0
23/04:30pm 31.1 33.1 21.6 57 6.4 NE 13 19 7 10 1007.8 1007.6 0.0
23/04:00pm 31.4 33.2 21.8 56 6.5 NNE 15 20 8 11 1007.9 1007.7 0.0
23/03:30pm 30.9 31.9 22.2 59 5.9 N 20 26 11 14 1008.0 1007.8 0.0
23/03:00pm 31.8 33.4 23.3 60 5.9 NNW 20 24 11 13 1008.0 1007.8 0.0
23/02:30pm 31.4 33.0 22.1 57 6.3 NNE 17 24 9 13 1008.1 1007.9 0.0
23/02:00pm 32.1 33.3 20.7 51 7.6 ENE 15 24 8 13 1008.4 1008.2 0.0
23/01:30pm 32.3 34.0 20.9 51 7.7 NE 13 20 7 11 1008.6 1008.4 0.0
23/01:00pm 31.3 31.3 19.0 48 8.0 E 17 28 9 15 1009.0 1008.8 0.0
23/12:30pm 31.7 32.6 19.3 47 8.1 ESE 13 26 7 14 1009.4 1009.3 0.0
23/12:00pm 31.4 31.5 18.4 46 8.4 ESE 15 24 8 13 1009.7 1009.6 0.0
23/11:30am 31.3 31.1 19.3 49 7.9 ESE 19 28 10 15 1009.9 1009.8 0.0
23/11:00am 31.0 30.6 19.0 48 7.8 ESE 19 24 10 13 1010.1 1010.0 0.0
23/10:30am 30.2 30.3 19.9 54 6.8 SE 19 26 10 14 1010.3 1010.2 0.0
23/10:00am 29.8 31.1 20.1 56 6.4 ESE 13 20 7 11 1010.6 1010.5 0.0
23/09:30am 28.7 30.1 19.6 58 5.9 ESE 11 17 6 9 1010.7 1010.6 0.0
23/09:00am 27.8 29.5 20.1 63 5.0 E 11 17 6 9 1010.9 1010.8 0.0
23/08:30am 26.5 28.4 20.6 70 3.9 SE 11 15 6 8 1010.6 1010.5 0.0
23/08:00am 25.5 27.8 20.7 75 3.2 ESE 9 11 5 6 1010.6 1010.5 0.0
23/07:30am 24.4 27.0 20.5 79 2.5 SE 7 11 4 6 1010.2 1010.1 0.0
23/07:00am 23.5 25.8 20.6 84 1.9 SE 9 13 5 7 1009.7 1009.6 0.0
23/06:30am 23.4 24.9 20.5 84 1.9 SE 13 17 7 9 1009.3 1009.1 0.0
23/06:00am 23.1 24.7 20.8 87 1.5 SE 13 15 7 8 1009.3 1009.1 0.0
23/05:30am 23.1 25.5 20.8 87 1.5 SSE 9 13 5 7 1009.4 1009.3 0.0
23/05:00am 23.3 25.5 21.2 88 1.4 ESE 11 13 6 7 1009.5 1009.4 0.0
23/04:30am 23.4 26.1 21.3 88 1.4 ESE 9 11 5 6 1009.6 1009.5 0.0
23/04:00am 23.4 26.5 21.5 89 1.3 SE 7 9 4 5 1009.8 1009.7 0.0
23/03:30am 23.7 26.9 21.6 88 1.4 SSE 7 7 4 4 1010.1 1010.0 0.0
23/03:00am 24.0 27.0 21.9 88 1.4 SE 9 11 5 6 1010.3 1010.2 0.0
23/02:30am 24.4 27.4 21.9 86 1.7 S 9 13 5 7 1010.5 1010.4 0.0
23/02:00am 24.0 27.9 21.9 88 1.4 S 4 7 2 4 1010.8 1010.7 0.0
23/01:30am 24.6 27.9 21.9 85 1.8 S 7 9 4 5 1011.0 1010.9 0.0
23/01:00am 25.0 28.6 22.1 84 1.9 SSE 6 9 3 5 1011.3 1011.1 0.0
23/12:30am 25.3 28.4 22.2 83 2.1 SE 9 11 5 6 1011.5 1011.3 0.0
23/12:00am 25.7 28.9 22.4 82 2.2 ESE 9 11 5 6 1011.8 1011.6 0.0
 
Date/Time
CST
Temp
°C
App
Temp
°C
Dew
Point
Rel
Hum
%
Delta-T
°C
Wind Press
QNH
hPa
Press
MSL
hPa
Rain
since 9 am
mm
Dir
 
Spd
km/h
Gust
km/h
Spd
kts
Gust
kts
22/11:30pm 26.1 29.6 22.8 82 2.2 ESE 9 11 5 6 1012.1 1011.9 0.0
22/11:00pm 25.9 31.0 24.9 94 0.7 SE 7 9 4 5 1011.9 1011.7 0.0
22/10:30pm 26.2 32.5 24.8 92 1.0 CALM 0 0 0 0 1012.1 1011.9 0.0
22/10:00pm 26.5 32.9 24.9 91 1.1 CALM 0 0 0 0 1012.0 1011.8 0.0
22/09:30pm 26.9 32.2 24.9 89 1.4 N 6 7 3 4 1012.1 1011.9 0.0
22/09:00pm 27.3 33.6 24.7 86 1.8 CALM 0 0 0 0 1012.3 1012.1 0.0
22/08:30pm 27.5 32.6 24.9 86 1.8 NNE 7 11 4 6 1012.0 1011.8 0.0
22/08:00pm 27.7 32.6 24.7 84 2.1 NNE 7 11 4 6 1012.0 1011.8 0.0
22/07:30pm 27.6 32.5 25.2 87 1.7 N 9 13 5 7 1011.4 1011.2 0.0
22/07:00pm 27.4 31.8 24.5 84 2.0 NNE 9 11 5 6 1010.7 1010.6 0.0
22/06:30pm 28.1 32.8 24.3 80 2.6 NE 7 11 4 6 1010.4 1010.3 0.0
22/06:00pm 28.1 31.4 23.9 78 2.9 NNE 13 20 7 11 1009.9 1009.8 0.0
22/05:30pm 30.2 32.7 21.8 60 5.7 SE 11 17 6 9 1009.4 1009.3 0.0
22/05:00pm 30.4 32.9 21.8 60 5.8 E 11 13 6 7 1009.0 1008.8 0.0
22/04:30pm 30.7 33.1 21.5 58 6.2 E 11 17 6 9 1008.7 1008.5 0.0
22/04:00pm 31.0 33.0 21.5 57 6.4 ESE 13 15 7 8 1008.5 1008.3 0.0
22/03:30pm 32.4 34.4 22.2 55 7.0 ESE 15 24 8 13 1008.5 1008.3 0.0
22/03:00pm 31.9 32.7 21.4 53 7.1 ESE 19 26 10 14 1008.6 1008.4 0.0
22/02:30pm 31.0 31.9 20.9 55 6.8 ESE 17 24 9 13 1009.0 1008.8 0.0
22/02:00pm 31.7 32.7 22.1 56 6.5 ESE 20 30 11 16 1009.3 1009.1 0.0
22/01:30pm 31.4 32.7 21.6 56 6.6 E 17 28 9 15 1009.7 1009.6 0.0
22/01:00pm 31.9 32.9 21.7 54 6.9 ESE 19 30 10 16 1009.7 1009.6 0.0
22/12:30pm 30.9 31.9 21.7 58 6.2 ESE 19 28 10 15 1010.0 1009.9 0.0
22/12:00pm 31.1 32.0 21.9 58 6.2 ESE 20 30 11 16 1010.3 1010.2 0.0
22/11:30am 30.3 30.2 20.8 56 6.3 ESE 22 33 12 18 1010.8 1010.7 0.0
22/11:00am 30.3 30.0 21.1 58 6.2 ESE 24 35 13 19 1011.3 1011.1 0.0
22/10:30am 29.9 29.0 20.7 57 6.1 SE 26 33 14 18 1011.6 1011.4 0.0

Other Formats:

Comma delimited format used in spreadsheet applications
http://www.bom.gov.au/fwo/IDD60801/IDD60801.95142.axf

JavaScript Object Notation format (JSON) in row-major order
http://www.bom.gov.au/fwo/IDD60801/IDD60801.95142.json